Time;durP1;ratioP1;P1;durP2;ratioP2;P2;SDS_P1;SDS_P2;PMS_P1;PMS_P2;Temp;Humidity;BMP_temperature;BMP_pressure;BME280_temperature;BME280_humidity;BME280_pressure;Samples;Min_cycle;Max_cycle;Signal;HPM_P1;HPM_P2
2022/01/01 00:00:35;;;;;;;6.70;5.33;;;7.30;99.90;6.30;99642;;;;563879;251;24176;-77
2022/01/01 00:03:03;;;;;;;9.23;6.27;;;7.20;99.90;6.30;99647;;;;563897;251;24090;-77
2022/01/01 00:05:31;;;;;;;12.90;7.53;;;7.20;99.90;6.20;99643;;;;563470;251;24086;-76
2022/01/01 00:08:01;;;;;;;8.33;6.10;;;7.10;99.90;6.20;99649;;;;563999;250;24110;-76
2022/01/01 00:10:27;;;;;;;10.33;6.30;;;7.10;99.90;6.20;99657;;;;564922;250;24106;-76
2022/01/01 00:12:55;;;;;;;8.73;5.87;;;7.10;99.90;6.30;99661;;;;564076;250;24107;-77
2022/01/01 00:15:23;;;;;;;9.47;4.83;;;7.10;99.90;6.20;99652;;;;564207;250;26362;-77
2022/01/01 00:17:57;;;;;;;8.30;5.53;;;7.10;99.90;6.20;99654;;;;564470;250;24085;-79
2022/01/01 00:20:19;;;;;;;6.17;3.80;;;7.10;99.90;6.20;99665;;;;564233;250;24156;-77
2022/01/01 00:22:46;;;;;;;7.53;4.60;;;7.10;99.90;6.20;99659;;;;564439;250;24167;-77
2022/01/01 00:25:15;;;;;;;5.43;4.07;;;7.10;99.90;6.20;99654;;;;564435;250;24129;-78
2022/01/01 00:27:43;;;;;;;5.17;3.93;;;7.10;99.90;6.10;99653;;;;564214;250;24161;-76
2022/01/01 00:30:11;;;;;;;5.37;3.47;;;7.00;99.90;6.10;99661;;;;564415;250;24160;-77
2022/01/01 00:32:39;;;;;;;8.63;4.30;;;7.00;99.90;6.10;99649;;;;564416;250;24124;-78
2022/01/01 00:35:07;;;;;;;5.90;4.30;;;7.00;99.90;6.10;99649;;;;564374;250;24175;-77
2022/01/01 00:37:35;;;;;;;4.50;3.53;;;7.00;99.90;6.10;99651;;;;564259;250;24210;-77
2022/01/01 00:40:03;;;;;;;4.63;3.83;;;7.00;99.90;6.10;99653;;;;563719;250;24091;-75
2022/01/01 00:42:31;;;;;;;6.30;4.13;;;7.00;99.90;6.10;99666;;;;564006;250;24131;-76
2022/01/01 00:44:59;;;;;;;6.17;4.07;;;7.00;99.90;6.00;99663;;;;563772;251;24172;-76
2022/01/01 00:47:26;;;;;;;7.97;5.43;;;6.90;99.90;6.00;99675;;;;563684;251;24181;-76
2022/01/01 00:49:54;;;;;;;9.00;5.97;;;6.90;99.90;5.90;99674;;;;563553;251;24103;-77
2022/01/01 00:52:22;;;;;;;8.03;6.23;;;6.90;99.90;5.90;99677;;;;563603;251;24113;-77
2022/01/01 00:54:50;;;;;;;11.30;7.33;;;6.80;99.90;6.00;99677;;;;563566;251;24112;-76
2022/01/01 00:57:22;;;;;;;13.17;7.50;;;6.80;99.90;6.00;99672;;;;563429;251;24128;-76
2022/01/01 00:59:46;;;;;;;8.43;6.30;;;6.90;99.90;6.00;99678;;;;563404;251;24142;-76
2022/01/01 01:02:18;;;;;;;9.97;7.43;;;7.00;99.90;6.10;99685;;;;563476;251;24091;-76
2022/01/01 01:04:42;;;;;;;7.47;5.83;;;7.00;99.90;6.20;99685;;;;557811;251;24091;-77
2022/01/01 01:07:12;;;;;;;7.63;5.43;;;7.20;99.90;6.30;99680;;;;563553;251;24091;-75
2022/01/01 01:09:43;;;;;;;7.90;5.37;;;7.10;99.90;6.40;99693;;;;563623;251;24287;-76
2022/01/01 01:12:07;;;;;;;6.93;5.20;;;7.20;99.90;6.50;99694;;;;563208;251;24092;-76
2022/01/01 01:14:40;;;;;;;6.17;4.33;;;7.40;99.90;6.50;99694;;;;563494;251;24106;-76
2022/01/01 01:17:03;;;;;;;6.87;4.77;;;7.40;99.90;6.60;99699;;;;563268;251;24095;-76
2022/01/01 01:19:35;;;;;;;7.50;5.20;;;7.50;99.90;6.60;99698;;;;563902;249;24085;-75
2022/01/01 01:21:59;;;;;;;6.60;4.00;;;7.50;99.90;6.70;99702;;;;564948;250;24092;-75
2022/01/01 01:24:27;;;;;;;6.03;4.87;;;7.60;99.90;6.70;99715;;;;562552;251;25158;-76
2022/01/01 01:27:00;;;;;;;6.33;3.83;;;7.60;99.90;6.70;99717;;;;560800;251;24128;-76
2022/01/01 01:29:26;;;;;;;5.17;4.10;;;7.60;99.90;6.70;99714;;;;560616;251;24107;-77
2022/01/01 01:31:54;;;;;;;7.33;4.63;;;7.60;99.90;6.70;99721;;;;560686;251;24144;-77
2022/01/01 01:34:22;;;;;;;7.07;4.10;;;7.60;99.90;6.80;99733;;;;560624;251;24182;-77
2022/01/01 01:36:50;;;;;;;7.57;4.40;;;7.70;99.90;6.80;99718;;;;560612;251;24151;-77
2022/01/01 01:39:17;;;;;;;5.17;3.97;;;7.70;99.90;6.80;99726;;;;561191;251;24136;-77
2022/01/01 01:41:46;;;;;;;5.23;4.00;;;7.70;99.90;6.80;99728;;;;560501;251;24221;-78
2022/01/01 01:44:33;;;;;;;8.13;3.60;;;7.70;99.90;6.80;99733;;;;559929;251;24122;-77
2022/01/01 01:47:03;;;;;;;8.07;4.40;;;7.70;99.90;6.70;99727;;;;561162;251;24113;-76
2022/01/01 01:49:30;;;;;;;5.00;4.43;;;7.60;99.90;6.70;99739;;;;563392;251;24131;-78
2022/01/01 01:51:58;;;;;;;4.23;3.83;;;7.60;99.90;6.70;99729;;;;560777;251;24132;-77
2022/01/01 01:54:29;;;;;;;4.63;3.03;;;7.60;99.90;6.70;99737;;;;561131;251;24155;-76
2022/01/01 01:56:58;;;;;;;5.70;3.13;;;7.50;99.90;6.60;99733;;;;569049;251;24135;-76
2022/01/01 01:59:22;;;;;;;4.73;3.30;;;7.50;99.90;6.60;99722;;;;560696;251;24153;-77
2022/01/01 02:01:50;;;;;;;4.70;3.63;;;7.50;99.90;6.60;99732;;;;560527;251;24124;-77
2022/01/01 02:04:17;;;;;;;6.63;4.70;;;7.50;99.90;6.60;99743;;;;569304;251;24174;-76
2022/01/01 02:06:46;;;;;;;8.50;4.53;;;7.40;99.90;6.60;99739;;;;559767;247;24167;-76
2022/01/01 02:09:14;;;;;;;7.50;5.30;;;7.40;99.90;6.60;99735;;;;560082;251;24142;-77
2022/01/01 02:11:42;;;;;;;6.70;5.17;;;7.50;99.90;6.60;99723;;;;559986;251;24184;-77
2022/01/01 02:14:47;;;;;;;5.87;4.27;;;7.40;99.90;6.60;99722;;;;559991;251;24182;-77
2022/01/01 02:19:30;;;;;;;7.17;5.13;;;7.40;99.90;6.50;99745;;;;560196;251;24111;-76
2022/01/01 02:21:56;;;;;;;8.40;4.10;;;7.40;99.90;6.50;99752;;;;560832;251;24139;-77
2022/01/01 02:24:26;;;;;;;7.10;4.17;;;7.40;99.90;6.50;99751;;;;569362;251;24131;-77
2022/01/01 02:26:51;;;;;;;7.37;4.00;;;7.40;99.90;6.50;99752;;;;560892;251;24124;-75
2022/01/01 02:29:19;;;;;;;8.27;4.33;;;7.30;99.90;6.50;99745;;;;559959;251;24168;-77
2022/01/01 02:31:47;;;;;;;7.63;4.17;;;7.30;99.90;6.50;99763;;;;561329;251;24115;-77
2022/01/01 02:34:15;;;;;;;5.40;3.57;;;7.40;99.90;6.50;99779;;;;570440;251;24115;-77
2022/01/01 02:36:43;;;;;;;6.63;3.53;;;7.30;99.90;6.40;99787;;;;560659;251;24157;-76
2022/01/01 02:39:17;;;;;;;5.90;3.83;;;7.30;99.90;6.40;99790;;;;569993;251;24213;-76
2022/01/01 02:41:48;;;;;;;4.77;3.30;;;7.30;99.90;6.40;99796;;;;569806;251;24122;-77
2022/01/01 02:44:12;;;;;;;6.00;3.50;;;7.30;99.90;6.40;99799;;;;561266;251;24186;-77
2022/01/01 02:46:43;;;;;;;6.43;3.77;;;7.30;99.90;6.40;99798;;;;560209;251;24322;-78
2022/01/01 02:49:11;;;;;;;5.03;4.27;;;7.30;99.90;6.40;99808;;;;560212;251;24169;-77
2022/01/01 02:51:36;;;;;;;5.53;3.90;;;7.20;99.90;6.40;99823;;;;560985;251;24120;-77
2022/01/01 02:54:04;;;;;;;3.13;2.80;;;7.20;99.90;6.30;99813;;;;560130;251;24112;-77
2022/01/01 02:56:33;;;;;;;4.13;2.20;;;7.20;99.90;6.30;99825;;;;559924;251;24131;-76
2022/01/01 02:59:01;;;;;;;1.87;1.77;;;7.20;99.90;6.30;99826;;;;560111;251;24128;-77
2022/01/01 03:01:29;;;;;;;2.47;2.27;;;7.20;99.90;6.20;99826;;;;559986;251;24154;-77
2022/01/01 03:03:57;;;;;;;2.63;2.30;;;7.10;99.90;6.20;99825;;;;560336;251;24218;-77
2022/01/01 03:06:27;;;;;;;4.33;1.73;;;7.10;99.90;6.20;99825;;;;559470;252;24102;-76
2022/01/01 03:08:55;;;;;;;2.57;1.80;;;7.10;99.90;6.20;99836;;;;558114;253;24148;-76
2022/01/01 03:11:21;;;;;;;4.60;1.67;;;7.10;99.90;6.20;99845;;;;558132;253;24188;-78
2022/01/01 03:13:50;;;;;;;2.20;1.60;;;7.10;99.90;6.20;99842;;;;558040;253;24139;-78
2022/01/01 03:16:18;;;;;;;1.13;1.10;;;7.10;99.90;6.20;99839;;;;558209;253;24199;-77
2022/01/01 03:18:46;;;;;;;1.10;1.10;;;7.10;99.90;6.20;99847;;;;558091;253;24133;-77
2022/01/01 03:21:13;;;;;;;3.83;1.60;;;7.10;99.90;6.20;99838;;;;557981;253;24114;-77
2022/01/01 03:23:41;;;;;;;1.30;1.20;;;7.00;99.90;6.10;99836;;;;558466;253;24146;-76
2022/01/01 03:26:13;;;;;;;1.00;1.00;;;7.00;99.90;6.10;99834;;;;558439;253;24182;-77
2022/01/01 03:28:38;;;;;;;0.90;0.90;;;7.00;99.90;6.10;99831;;;;557089;253;24108;-76
2022/01/01 03:31:06;;;;;;;1.00;0.73;;;7.00;99.90;6.10;99837;;;;559271;250;24209;-76
2022/01/01 03:33:34;;;;;;;1.30;0.97;;;7.00;99.90;6.00;99845;;;;561971;250;24077;-76
2022/01/01 03:36:05;;;;;;;1.03;0.83;;;6.90;99.90;6.00;99845;;;;562015;250;24089;-76
2022/01/01 03:38:30;;;;;;;1.07;0.80;;;6.90;99.90;6.10;99851;;;;565109;250;24137;-76
2022/01/01 03:41:01;;;;;;;1.67;0.60;;;6.90;99.90;6.10;99850;;;;561972;250;24160;-76
2022/01/01 03:43:27;;;;;;;0.80;0.80;;;7.00;99.90;6.10;99848;;;;561347;249;35285;-76
2022/01/01 03:45:55;;;;;;;3.17;0.90;;;6.90;99.90;6.10;99845;;;;563080;249;24086;-76
2022/01/01 03:48:23;;;;;;;1.53;1.43;;;7.00;99.90;6.10;99855;;;;574537;249;24089;-77
2022/01/01 03:50:54;;;;;;;1.67;0.87;;;7.00;99.90;6.10;99857;;;;557966;253;24161;-77
2022/01/01 03:53:21;;;;;;;1.63;0.73;;;7.00;99.90;6.20;99865;;;;559952;253;24074;-77
2022/01/01 03:55:46;;;;;;;0.80;0.80;;;7.00;99.90;6.10;99862;;;;563426;254;24212;-77
2022/01/01 03:58:15;;;;;;;0.90;0.87;;;7.10;99.90;6.20;99877;;;;564164;253;24225;-76
2022/01/01 04:00:43;;;;;;;1.77;0.80;;;7.00;99.90;6.10;99874;;;;554808;254;24135;-76
2022/01/01 04:03:17;;;;;;;0.90;0.90;;;7.10;99.90;6.20;99869;;;;557351;254;24172;-76
2022/01/01 04:05:42;;;;;;;1.23;0.73;;;7.10;99.90;6.10;99863;;;;573836;249;24114;-76
2022/01/01 04:08:12;;;;;;;0.80;0.80;;;7.00;99.90;6.20;99871;;;;551950;254;24221;-77
2022/01/01 04:10:38;;;;;;;0.67;0.67;;;7.00;99.90;6.10;99866;;;;563933;250;24126;-76
2022/01/01 04:13:09;;;;;;;0.80;0.80;;;7.00;99.90;6.10;99871;;;;551869;254;24155;-77
2022/01/01 04:15:33;;;;;;;1.23;1.00;;;7.00;99.90;6.10;99878;;;;557313;253;24084;-76
2022/01/01 04:18:06;;;;;;;4.13;1.10;;;7.00;99.90;6.10;99876;;;;565662;250;24142;-76
2022/01/01 04:20:30;;;;;;;2.17;1.20;;;7.00;99.90;6.10;99874;;;;558136;254;35417;-76
2022/01/01 04:22:58;;;;;;;1.67;0.90;;;7.00;99.90;6.10;99884;;;;563413;251;24142;-76
2022/01/01 04:25:29;;;;;;;3.13;0.97;;;7.00;99.90;6.20;99879;;;;562931;249;24169;-75
2022/01/01 04:27:54;;;;;;;1.10;1.00;;;7.00;99.90;6.20;99885;;;;561618;250;24139;-76
2022/01/01 04:30:25;;;;;;;1.37;0.90;;;7.10;99.90;6.20;99875;;;;571964;251;24145;-76
2022/01/01 04:32:50;;;;;;;1.20;1.10;;;7.00;99.90;6.20;99888;;;;566299;249;24133;-76
2022/01/01 04:35:18;;;;;;;0.87;0.87;;;7.10;99.90;6.20;99885;;;;562998;249;24083;-77
2022/01/01 04:37:46;;;;;;;1.60;1.20;;;7.10;99.90;6.20;99879;;;;562923;249;24088;-77
2022/01/01 04:40:14;;;;;;;1.20;1.10;;;7.10;99.90;6.20;99882;;;;562993;249;24086;-78
2022/01/01 04:42:42;;;;;;;2.07;1.20;;;7.10;99.90;6.20;99886;;;;556843;254;24120;-78
2022/01/01 04:45:10;;;;;;;3.00;1.57;;;7.10;99.90;6.20;99899;;;;573647;250;24118;-77
2022/01/01 04:47:38;;;;;;;2.60;1.20;;;7.10;99.90;6.20;99896;;;;554661;254;24174;-77
2022/01/01 04:50:08;;;;;;;2.57;1.40;;;7.10;99.90;6.20;99894;;;;557447;253;24074;-76
2022/01/01 04:52:34;;;;;;;0.90;0.80;;;7.10;99.90;6.20;99895;;;;554644;254;24156;-75
2022/01/01 04:55:01;;;;;;;1.00;1.00;;;7.10;99.90;6.20;99903;;;;558097;253;24106;-76
2022/01/01 04:57:30;;;;;;;2.10;1.07;;;7.10;99.90;6.20;99906;;;;552254;255;24137;-76
2022/01/01 05:00:01;;;;;;;1.60;0.80;;;7.10;99.90;6.20;99911;;;;551876;256;24105;-76
2022/01/01 05:02:26;;;;;;;1.43;1.40;;;7.10;99.90;6.20;99912;;;;552548;256;24163;-75
2022/01/01 05:04:56;;;;;;;1.30;1.20;;;7.10;99.90;6.20;99926;;;;541938;260;24168;-77
2022/01/01 05:07:21;;;;;;;2.07;1.40;;;7.20;99.90;6.30;99935;;;;559788;252;24217;-77
2022/01/01 05:09:50;;;;;;;1.23;1.13;;;7.20;99.90;6.30;99930;;;;560307;256;24139;-77
2022/01/01 05:12:17;;;;;;;1.27;1.00;;;7.10;99.90;6.30;99933;;;;551994;256;24150;-78
2022/01/01 05:14:46;;;;;;;5.67;1.43;;;7.10;99.90;6.30;99932;;;;551826;256;25405;-78
2022/01/01 05:17:14;;;;;;;2.37;1.47;;;7.10;99.90;6.30;99934;;;;551876;256;24132;-77
2022/01/01 05:19:43;;;;;;;1.70;1.60;;;7.10;99.90;6.30;99936;;;;551829;256;24168;-78
2022/01/01 05:22:11;;;;;;;2.07;1.20;;;7.10;99.90;6.30;99942;;;;551856;256;24332;-77
2022/01/01 05:24:38;;;;;;;1.10;1.10;;;7.10;99.90;6.30;99942;;;;551478;256;24213;-78
2022/01/01 05:27:06;;;;;;;2.77;1.57;;;7.20;99.90;6.30;99938;;;;551589;256;24132;-76
2022/01/01 05:29:38;;;;;;;1.37;1.27;;;7.20;99.90;6.30;99942;;;;551483;256;24229;-76
2022/01/01 05:32:02;;;;;;;3.53;1.80;;;7.20;99.90;6.30;99941;;;;560938;251;24216;-76
2022/01/01 05:34:30;;;;;;;2.03;1.60;;;7.10;99.90;6.20;99942;;;;548774;256;24227;-76
2022/01/01 05:36:58;;;;;;;1.83;1.67;;;7.10;99.90;6.20;99948;;;;560214;256;24164;-77
2022/01/01 05:39:26;;;;;;;1.60;1.50;;;7.10;99.90;6.20;99942;;;;551392;256;24196;-76
2022/01/01 05:41:54;;;;;;;2.80;1.30;;;7.10;99.90;6.30;99945;;;;561022;251;24126;-76
2022/01/01 05:44:25;;;;;;;2.03;1.80;;;7.10;99.90;6.20;99940;;;;548866;256;24175;-76
2022/01/01 05:46:52;;;;;;;3.03;1.70;;;7.10;99.90;6.20;99940;;;;560823;251;24144;-76
2022/01/01 05:49:18;;;;;;;2.20;1.57;;;7.10;99.90;6.30;99950;;;;558547;256;24155;-76
2022/01/01 05:51:46;;;;;;;2.07;1.90;;;7.10;99.90;6.30;99955;;;;551221;256;24165;-76
2022/01/01 05:54:14;;;;;;;1.47;1.37;;;7.10;99.90;6.30;99948;;;;560876;251;24163;-76
2022/01/01 05:56:42;;;;;;;2.53;1.60;;;7.10;99.90;6.30;99957;;;;559052;251;24177;-76
2022/01/01 05:59:10;;;;;;;1.83;1.70;;;7.20;99.90;6.30;99969;;;;551229;256;24267;-76
2022/01/01 06:01:38;;;;;;;2.53;1.70;;;7.20;99.90;6.30;99959;;;;561000;251;24097;-76
2022/01/01 06:04:06;;;;;;;1.57;1.47;;;7.20;99.90;6.30;99965;;;;548817;256;24183;-77
2022/01/01 06:06:34;;;;;;;1.80;1.70;;;7.20;99.90;6.30;99964;;;;551870;255;24175;-75
2022/01/01 06:09:02;;;;;;;1.70;1.60;;;7.10;99.90;6.30;99968;;;;562120;251;24135;-76
2022/01/01 06:11:31;;;;;;;2.60;2.33;;;7.20;99.90;6.30;99957;;;;554861;251;35497;-77
2022/01/01 06:13:59;;;;;;;1.83;1.73;;;7.10;99.90;6.30;99967;;;;552046;256;24152;-76
2022/01/01 06:16:27;;;;;;;1.90;1.70;;;7.10;99.90;6.30;99968;;;;561458;251;24140;-76
2022/01/01 06:18:54;;;;;;;2.80;1.07;;;7.10;99.90;6.20;99968;;;;549609;255;24141;-77
2022/01/01 06:21:22;;;;;;;3.03;1.83;;;7.10;99.90;6.30;99972;;;;551749;256;24170;-77
2022/01/01 06:23:51;;;;;;;2.23;2.03;;;7.10;99.90;6.20;99971;;;;561290;249;24213;-77
2022/01/01 06:26:19;;;;;;;2.67;1.97;;;7.10;99.90;6.20;99983;;;;549393;256;24149;-76
2022/01/01 06:28:48;;;;;;;4.47;1.73;;;7.10;99.90;6.20;99989;;;;551820;256;24199;-76
2022/01/01 06:31:15;;;;;;;2.23;1.90;;;7.10;99.90;6.20;99999;;;;561502;251;24107;-76
2022/01/01 06:33:43;;;;;;;2.27;2.07;;;7.10;99.90;6.20;99995;;;;561562;251;24149;-75
2022/01/01 06:36:12;;;;;;;2.07;1.87;;;7.10;99.90;6.20;100000;;;;551303;256;25258;-76
2022/01/01 06:38:45;;;;;;;2.03;1.83;;;7.10;99.90;6.20;100002;;;;549401;256;24152;-75
2022/01/01 06:41:10;;;;;;;2.83;2.07;;;7.10;99.90;6.20;100003;;;;569915;251;24167;-76
2022/01/01 06:43:38;;;;;;;2.63;2.43;;;7.10;99.90;6.20;100007;;;;561391;251;24236;-77
2022/01/01 06:46:06;;;;;;;7.03;2.30;;;7.10;99.90;6.20;100019;;;;561337;251;25245;-76
2022/01/01 06:48:34;;;;;;;2.07;1.90;;;7.10;99.90;6.20;100023;;;;553553;255;24171;-76
2022/01/01 06:51:02;;;;;;;3.20;2.20;;;7.10;99.90;6.20;100026;;;;568313;251;24168;-76
2022/01/01 06:53:30;;;;;;;2.90;2.60;;;7.20;99.90;6.20;100032;;;;560849;251;24200;-76
2022/01/01 06:55:59;;;;;;;4.27;2.67;;;7.20;99.90;6.20;100035;;;;550786;256;24213;-76
2022/01/01 06:58:27;;;;;;;5.13;2.63;;;7.20;99.90;6.30;100043;;;;548708;256;24199;-76
2022/01/01 07:00:54;;;;;;;2.80;2.60;;;7.20;99.90;6.30;100046;;;;551364;254;24234;-76
2022/01/01 07:03:25;;;;;;;3.87;2.97;;;7.20;99.90;6.30;100049;;;;560911;251;24119;-76
2022/01/01 07:05:53;;;;;;;5.27;2.57;;;7.20;99.90;6.30;100053;;;;560567;251;24159;-76
2022/01/01 07:08:18;;;;;;;4.60;2.93;;;7.20;99.90;6.30;100058;;;;559169;253;24163;-76
2022/01/01 07:10:46;;;;;;;4.53;2.57;;;7.30;99.90;6.30;100070;;;;568854;251;24219;-77
2022/01/01 07:13:14;;;;;;;6.40;2.70;;;7.30;99.90;6.30;100070;;;;560916;251;24148;-76
2022/01/01 07:15:42;;;;;;;8.87;3.47;;;7.30;99.90;6.40;100074;;;;565460;251;24135;-76
2022/01/01 07:18:09;;;;;;;6.30;2.57;;;7.30;99.90;6.40;100082;;;;561854;251;24137;-77
2022/01/01 07:20:38;;;;;;;2.63;2.43;;;7.30;99.90;6.40;100084;;;;562211;251;24139;-76
2022/01/01 07:23:06;;;;;;;4.50;2.67;;;7.30;99.90;6.40;100078;;;;560872;249;24103;-76
2022/01/01 07:25:34;;;;;;;4.83;3.47;;;7.30;99.90;6.40;100087;;;;558107;253;24099;-77
2022/01/01 07:28:02;;;;;;;3.57;2.50;;;7.40;99.90;6.50;100088;;;;566139;249;24090;-76
2022/01/01 07:30:30;;;;;;;4.93;3.60;;;7.40;99.90;6.50;100089;;;;557558;249;35249;-77
2022/01/01 07:32:58;;;;;;;4.80;3.35;;;7.40;99.90;6.50;100099;;;;557533;249;35270;-77
2022/01/01 07:35:26;;;;;;;6.05;3.67;;;7.40;99.90;6.50;100095;;;;557376;250;35297;-75
2022/01/01 07:37:53;;;;;;;7.17;2.90;;;7.40;99.90;6.50;100105;;;;565827;250;24148;-77
2022/01/01 07:40:21;;;;;;;2.93;2.43;;;7.50;99.90;6.50;100116;;;;562167;250;25159;-76
2022/01/01 07:42:49;;;;;;;3.10;2.60;;;7.50;99.90;6.60;100118;;;;565350;250;24082;-77
2022/01/01 07:45:18;;;;;;;3.83;2.77;;;7.50;99.90;6.60;100128;;;;562273;250;24130;-77
2022/01/01 07:47:46;;;;;;;5.80;2.33;;;7.50;99.90;6.60;100130;;;;562186;250;25191;-77
2022/01/01 07:50:14;;;;;;;4.33;2.67;;;7.50;99.90;6.60;100128;;;;562071;250;24197;-77
2022/01/01 07:52:42;;;;;;;5.23;2.73;;;7.50;99.90;6.60;100127;;;;567594;250;24078;-78
2022/01/01 07:55:13;;;;;;;4.47;2.17;;;7.50;99.90;6.60;100134;;;;565167;250;24093;-78
2022/01/01 07:57:38;;;;;;;6.23;3.03;;;7.50;99.90;6.60;100127;;;;562688;250;24103;-78
2022/01/01 08:00:07;;;;;;;7.20;3.23;;;7.50;99.90;6.60;100141;;;;561644;250;24112;-78
2022/01/01 08:02:40;;;;;;;4.00;2.47;;;7.50;99.90;6.60;100147;;;;562959;250;24167;-79
2022/01/01 08:05:08;;;;;;;3.83;2.20;;;7.50;99.90;6.60;100148;;;;565528;250;24150;-77
2022/01/01 08:07:36;;;;;;;3.87;2.13;;;7.60;99.90;6.60;100147;;;;565142;250;24102;-76
2022/01/01 08:10:04;;;;;;;3.50;2.50;;;7.60;99.90;6.60;100152;;;;561394;250;24145;-76
2022/01/01 08:12:32;;;;;;;4.90;2.37;;;7.60;99.90;6.60;100156;;;;573772;250;24083;-77
2022/01/01 08:15:00;;;;;;;2.83;1.87;;;7.60;99.90;6.60;100166;;;;564715;250;24096;-77
2022/01/01 08:17:29;;;;;;;2.73;2.20;;;7.50;99.90;6.60;100162;;;;561679;250;24117;-76
2022/01/01 08:19:57;;;;;;;4.20;2.57;;;7.50;99.90;6.60;100163;;;;561501;250;24114;-77
2022/01/01 08:22:25;;;;;;;6.20;2.70;;;7.50;99.90;6.60;100168;;;;564968;250;24170;-76
2022/01/01 08:24:52;;;;;;;4.57;2.30;;;7.50;99.90;6.50;100165;;;;573732;250;24103;-76
2022/01/01 08:27:20;;;;;;;5.80;2.50;;;7.40;99.90;6.40;100171;;;;561861;250;24091;-75
2022/01/01 08:29:48;;;;;;;4.23;1.80;;;7.40;99.90;6.40;100182;;;;562685;249;24110;-75
2022/01/01 08:32:16;;;;;;;6.63;2.27;;;7.30;99.90;6.40;100197;;;;566236;249;24121;-76
2022/01/01 08:34:47;;;;;;;3.07;2.40;;;7.30;99.90;6.40;100192;;;;562692;249;24371;-76
2022/01/01 08:37:12;;;;;;;6.20;2.50;;;7.30;99.90;6.40;100202;;;;566248;249;24101;-78
2022/01/01 08:39:40;;;;;;;4.37;2.40;;;7.30;99.90;6.40;100204;;;;562483;249;24128;-76
2022/01/01 08:42:09;;;;;;;6.97;2.10;;;7.30;99.90;6.40;100206;;;;562380;249;24152;-75
2022/01/01 08:44:36;;;;;;;5.27;2.23;;;7.30;99.90;6.40;100213;;;;562406;249;24081;-75
2022/01/01 08:47:07;;;;;;;6.60;2.13;;;7.30;99.90;6.40;100211;;;;565982;250;24077;-76
2022/01/01 08:49:31;;;;;;;6.50;1.80;;;7.30;99.90;6.40;100222;;;;565746;250;24140;-74
2022/01/01 08:51:59;;;;;;;6.67;1.93;;;7.30;99.90;6.50;100227;;;;562156;250;24093;-75
2022/01/01 08:54:27;;;;;;;3.40;1.80;;;7.40;99.90;6.50;100237;;;;562118;250;24094;-75
2022/01/01 08:56:55;;;;;;;1.73;1.60;;;7.40;99.90;6.50;100238;;;;565319;250;24153;-76
2022/01/01 08:59:23;;;;;;;7.47;2.20;;;7.40;99.90;6.60;100255;;;;561804;250;24118;-77
2022/01/01 09:01:51;;;;;;;4.50;1.90;;;7.50;99.90;6.60;100267;;;;561773;250;24104;-76
2022/01/01 09:04:19;;;;;;;3.80;1.97;;;7.50;99.90;6.60;100274;;;;561963;250;24111;-76
2022/01/01 09:06:47;;;;;;;3.50;1.60;;;7.50;99.90;6.60;100273;;;;561534;250;24087;-75
2022/01/01 09:09:15;;;;;;;6.60;1.93;;;7.60;99.90;6.70;100286;;;;561855;250;24134;-76
2022/01/01 09:11:43;;;;;;;5.10;1.67;;;7.60;99.90;6.70;100288;;;;559308;252;24148;-76
2022/01/01 09:14:12;;;;;;;6.27;1.83;;;7.60;99.90;6.70;100293;;;;551095;256;24174;-76
2022/01/01 09:16:39;;;;;;;5.43;2.13;;;7.60;99.90;6.70;100290;;;;539274;261;24170;-77
2022/01/01 09:19:07;;;;;;;4.37;1.20;;;7.60;99.90;6.70;100295;;;;549032;260;24165;-75
2022/01/01 09:21:35;;;;;;;6.10;1.67;;;7.60;99.90;6.70;100300;;;;549070;261;24215;-76
2022/01/01 09:24:03;;;;;;;4.37;1.60;;;7.60;99.90;6.70;100313;;;;549066;261;24170;-76
2022/01/01 09:26:31;;;;;;;4.30;1.80;;;7.60;99.90;6.70;100307;;;;555246;255;24088;-76
2022/01/01 09:28:59;;;;;;;3.30;2.00;;;7.60;99.90;6.70;100322;;;;556393;254;24150;-75
2022/01/01 09:31:27;;;;;;;4.27;1.83;;;7.60;99.90;6.70;100324;;;;558324;253;24209;-75
2022/01/01 09:33:55;;;;;;;1.20;1.10;;;7.60;99.90;6.70;100330;;;;566989;249;24116;-75
2022/01/01 09:36:23;;;;;;;6.97;2.23;;;7.60;99.90;6.60;100330;;;;563320;249;24125;-75
2022/01/01 09:38:52;;;;;;;6.93;2.23;;;7.50;99.90;6.60;100338;;;;563180;249;24102;-75
2022/01/01 09:41:20;;;;;;;5.70;2.27;;;7.50;99.90;6.60;100337;;;;564120;248;24103;-76
2022/01/01 09:43:48;;;;;;;4.40;2.00;;;7.50;99.90;6.60;100346;;;;564332;249;24074;-75
2022/01/01 09:46:16;;;;;;;3.60;1.83;;;7.50;99.90;6.60;100361;;;;567742;249;24125;-77
2022/01/01 09:48:44;;;;;;;4.53;2.47;;;7.50;99.90;6.60;100353;;;;563848;249;24093;-76
2022/01/01 09:51:15;;;;;;;3.53;2.47;;;7.50;99.90;6.60;100358;;;;565187;249;24105;-76
2022/01/01 09:53:40;;;;;;;4.23;2.20;;;7.50;99.90;6.60;100360;;;;561347;249;24159;-74
2022/01/01 09:56:08;;;;;;;2.23;1.93;;;7.50;99.90;6.60;100369;;;;567149;249;24152;-76
2022/01/01 09:58:40;;;;;;;8.37;2.57;;;7.50;99.90;6.60;100379;;;;563989;249;24181;-75
2022/01/01 10:01:07;;;;;;;6.97;2.97;;;7.50;99.90;6.60;100380;;;;572272;249;24098;-75
2022/01/01 10:03:38;;;;;;;4.53;2.50;;;7.50;99.90;6.60;100381;;;;563557;249;24125;-76
2022/01/01 10:06:13;;;;;;;7.50;2.70;;;7.50;99.90;6.60;100389;;;;567406;249;24144;-76
2022/01/01 10:08:40;;;;;;;8.23;3.53;;;7.50;99.90;6.60;100399;;;;562960;249;24098;-78
2022/01/01 10:11:08;;;;;;;4.17;2.50;;;7.50;99.90;6.60;100403;;;;563317;249;24101;-78
2022/01/01 10:13:36;;;;;;;3.23;2.30;;;7.50;99.90;6.60;100408;;;;566673;249;24104;-76
2022/01/01 10:16:01;;;;;;;8.33;2.43;;;7.50;99.90;6.60;100410;;;;575462;249;24160;-78
2022/01/01 10:18:32;;;;;;;6.03;2.77;;;7.50;99.90;6.60;100418;;;;566708;249;24101;-77
2022/01/01 10:21:03;;;;;;;4.97;1.97;;;7.50;99.90;6.60;100420;;;;566510;249;24157;-76
2022/01/01 10:23:31;;;;;;;4.23;2.27;;;7.50;99.90;6.60;100432;;;;574619;249;25154;-78
2022/01/01 10:29:14;;;;;;;3.97;2.40;;;7.50;99.90;6.60;100434;;;;563446;249;24111;-78
2022/01/01 10:32:03;;;;;;;7.27;2.90;;;7.50;99.90;6.60;100441;;;;567019;249;25158;-76
2022/01/01 10:34:31;;;;;;;6.60;2.83;;;7.50;99.90;6.60;100454;;;;566674;249;24149;-77
2022/01/01 10:37:03;;;;;;;6.33;3.10;;;7.50;99.90;6.60;100442;;;;566498;249;24143;-76
2022/01/01 10:39:31;;;;;;;13.17;3.33;;;7.50;99.90;6.60;100454;;;;566641;249;24168;-77
2022/01/01 10:42:00;;;;;;;4.53;2.70;;;7.50;99.90;6.60;100467;;;;564194;249;24345;-76
2022/01/01 10:44:28;;;;;;;6.07;2.57;;;7.50;99.90;6.60;100467;;;;563135;249;24091;-79
2022/01/01 10:46:59;;;;;;;4.10;2.30;;;7.50;99.90;6.60;100464;;;;566841;249;24123;-76
2022/01/01 10:52:27;;;;;;;4.30;2.23;;;7.40;99.90;6.50;100465;;;;563532;247;24109;-77
2022/01/01 10:55:05;;;;;;;4.10;2.20;;;7.40;99.90;6.50;100471;;;;567558;249;24135;-76
2022/01/01 10:57:36;;;;;;;12.77;3.47;;;7.30;99.90;6.40;100474;;;;565393;249;24160;-76
2022/01/01 11:00:16;;;;;;;6.10;2.70;;;7.30;99.90;6.40;100472;;;;565640;249;24122;-77
2022/01/01 11:02:56;;;;;;;2.17;1.93;;;7.30;99.90;6.30;100479;;;;565549;249;24113;-76
2022/01/01 11:05:34;;;;;;;7.73;2.73;;;7.20;99.90;6.30;100485;;;;563982;249;25171;-76
2022/01/01 11:07:58;;;;;;;4.97;2.13;;;7.20;99.90;6.30;100484;;;;567085;249;24209;-77
2022/01/01 11:10:26;;;;;;;4.07;2.17;;;7.20;99.90;6.30;100490;;;;556315;254;24115;-78
2022/01/01 11:12:54;;;;;;;7.73;2.67;;;7.20;99.90;6.30;100482;;;;553584;254;24176;-78
2022/01/01 11:15:22;;;;;;;3.70;2.27;;;7.20;99.90;6.30;100487;;;;556599;250;24165;-77
2022/01/01 11:17:49;;;;;;;2.37;2.10;;;7.20;99.90;6.40;100480;;;;551629;255;24174;-76
2022/01/01 11:20:20;;;;;;;5.70;2.57;;;7.30;99.90;6.40;100480;;;;552014;255;24227;-77
2022/01/01 11:22:49;;;;;;;3.80;2.27;;;7.30;99.90;6.40;100480;;;;558206;255;24207;-77
2022/01/01 11:25:17;;;;;;;7.50;2.37;;;7.30;99.90;6.50;100476;;;;551431;255;24179;-77
2022/01/01 11:27:45;;;;;;;5.07;1.90;;;7.30;99.90;6.50;100486;;;;559782;255;24166;-77
2022/01/01 11:30:11;;;;;;;4.17;2.07;;;7.40;99.90;6.50;100494;;;;551387;255;24146;-77
2022/01/01 11:32:39;;;;;;;5.80;2.40;;;7.40;99.90;6.50;100487;;;;551933;255;24182;-76
2022/01/01 11:35:12;;;;;;;3.47;2.10;;;7.40;99.90;6.50;100495;;;;551967;255;24148;-78
2022/01/01 11:37:59;;;;;;;3.10;2.13;;;7.40;99.90;6.50;100496;;;;551443;255;24144;-77
2022/01/01 11:40:27;;;;;;;3.23;2.40;;;7.40;99.90;6.50;100492;;;;543158;258;24162;-77
2022/01/01 11:42:58;;;;;;;8.63;2.27;;;7.40;99.90;6.50;100495;;;;551845;256;24164;-76